• Join FlightAware (Why Join?)
  • Login
  • US Flag 
04:59PM EDT


 

Airport Tracker/Info


-or-


 

Live Flight TrackerFlight Track Log ✈ JBU341 ✈ 25-Apr-2012 ✈ KJFK - KSRQ

Flight Track Log - Related Links

Times and Time Zones

All times are in EDT time to prevent confusion due to time zone crossing. See the JBU341 flight status page for this flight to view local times or setup timezone preferences in your user account.

Time Position Orientation Groundspeed Altitude Reporting Facility
EDT Latitude Longitude Course Direction KTS MPH feet Rate Location/Type
08:29AM 40.6235 -73.8138 201° Southwest  Level FlightAware Approximate
08:30AM 40.5377 -73.9290 114° Southeast  Level FlightAware Approximate
08:31AM 40.5167 -73.8667 210° Southwest 258 297 5,700  Level New York TRACON
08:32AM 40.4500 -73.9167 201° Southwest 266 306 9,000 2,640 Climbing New York TRACON
08:33AM 40.3833 -73.9500 243° Southwest 295 339 11,000 1,380 Climbing New York TRACON
08:34AM 40.3586 -74.0150 248° West 327 376 11,100 2,400 Climbing New York Center
08:35AM 40.3267 -74.1194 247° West 344 396 14,500 2,640 Climbing New York Center
08:36AM 40.2878 -74.2375 252° West 350 403 16,400 1,200 Climbing New York Center
08:37AM 40.2569 -74.3583 261° West 350 403 17,000 780 Climbing New York Center
08:38AM 40.2406 -74.4878 260° West 359 413 18,100 1,380 Climbing New York Center
08:39AM 40.2242 -74.6067 260° West 374 430 19,800 1,800 Climbing New York Center
08:40AM 40.2047 -74.7578 263° West 387 445 21,700 1,680 Climbing New York Center
08:41AM 40.1914 -74.8983 260° West 392 451 23,300 1,560 Climbing New York Center
08:42AM 40.1717 -75.0411 261° West 402 463 24,900 1,380 Climbing New York Center
08:43AM 40.1536 -75.1919 258° West 415 478 26,100 1,320 Climbing New York Center
08:44AM 40.1292 -75.3400 259° West 415 478 27,600 1,320 Climbing New York Center
08:45AM 40.1064 -75.4958 261° West 427 491 28,800 1,260 Climbing New York Center
08:46AM 40.0878 -75.6492 240° Southwest 433 498 30,100 1,200 Climbing New York Center
08:47AM 40.0278 -75.7861 232° Southwest 423 487 31,200 1,080 Climbing New York Center
08:48AM 39.9558 -75.9081 235° Southwest 478 550 32,300 1,200 Climbing New York Center
08:49AM 39.8783 -76.0539 238° Southwest 454 522 33,700 1,200 Climbing New York Center
08:50AM 39.8331 -76.1481 229° Southwest 448 516 34,400 840 Climbing Washington Center
08:51AM 39.7514 -76.2689 220° Southwest 448 516 35,200 720 Climbing Washington Center
08:52AM 39.6528 -76.3758 222° Southwest 448 516 35,900 300 Climbing Washington Center
08:53AM 39.5625 -76.4825 220° Southwest 453 521 35,900  Level Washington Center
08:54AM 39.4614 -76.5942 220° Southwest 458 527 36,000  Climbing Washington Center
08:55AM 39.3647 -76.7003 221° Southwest 463 533 36,000  Level Washington Center
08:56AM 39.2700 -76.8061 219° Southwest 463 533 36,000  Level Washington Center
08:57AM 39.1708 -76.9114 221° Southwest 463 533 36,000  Level Washington Center
08:58AM 39.0739 -77.0194 220° Southwest 463 533 36,000  Level Washington Center
08:59AM 38.9767 -77.1242 221° Southwest 463 533 36,000  Level Washington Center
09:00AM 38.8772 -77.2342 220° Southwest 463 533 36,000  Level Washington Center
09:01AM 38.7778 -77.3411 219° Southwest 463 533 36,000  Level Washington Center
09:02AM 38.6886 -77.4347 221° Southwest 463 533 36,000  Level Washington Center
09:03AM 38.5911 -77.5414 219° Southwest 458 527 36,000  Level Washington Center
09:04AM 38.4892 -77.6475 220° Southwest 469 540 36,000  Level Washington Center
09:05AM 38.3894 -77.7533 220° Southwest 469 540 36,000  Level Washington Center
09:06AM 38.2917 -77.8589 220° Southwest 469 540 36,000  Level Washington Center
09:07AM 38.1914 -77.9642 220° Southwest 469 540 36,000  Level Washington Center
09:08AM 38.0914 -78.0692 220° Southwest 463 533 36,000  Level Washington Center
09:09AM 38.0039 -78.1639 218° Southwest 463 533 36,000  Level Washington Center
09:10AM 37.8908 -78.2758 217° Southwest 469 540 36,000  Level Washington Center
09:11AM 37.7758 -78.3847 216° Southwest 479 551 36,000  Level Washington Center
09:12AM 37.6714 -78.4806 217° Southwest 479 551 36,000 -60 Level Washington Center
09:13AM 37.5667 -78.5786 217° Southwest 474 545 35,900  Descending Washington Center
09:14AM 37.4597 -78.6792 217° Southwest 474 545 36,000  Climbing Washington Center
09:15AM 37.3550 -78.7767 217° Southwest 474 545 36,000  Level Washington Center
09:16AM 37.2481 -78.8767 217° Southwest 469 540 36,000  Level Washington Center
09:17AM 37.1517 -78.9664 216° Southwest 474 545 36,000 -60 Level Washington Center
09:18AM 37.0467 -79.0633 216° Southwest 474 545 35,900  Descending Washington Center
09:19AM 36.9375 -79.1622 217° Southwest 474 545 36,000  Climbing Washington Center
09:20AM 36.8322 -79.2611 216° Southwest 479 551 36,000  Level Washington Center
09:21AM 36.7228 -79.3597 217° Southwest 479 551 36,000  Level Washington Center
09:22AM 36.6044 -79.4703 216° Southwest 484 557 36,000  Level Washington Center
09:23AM 36.4992 -79.5658 217° Southwest 484 557 36,000  Level Washington Center
09:24AM 36.3936 -79.6639 215° Southwest 484 557 36,000  Level Washington Center
09:26AM 36.0978 -79.9244 207° Southwest 460 529 36,000  Level Atlanta Center
09:27AM 35.9669 -80.0056 204° Southwest 466 536 36,000  Level Atlanta Center
09:28AM 35.8419 -80.0733 203° Southwest 502 578 36,000  Level Atlanta Center
09:29AM 35.7147 -80.1383 204° Southwest 502 578 36,000  Level Atlanta Center
09:30AM 35.6019 -80.2000 202° Southwest 507 583 36,000  Level Atlanta Center
09:31AM 35.4744 -80.2644 201° Southwest 507 583 36,000  Level Atlanta Center
09:32AM 35.3450 -80.3264 202° Southwest 507 583 36,000  Level Atlanta Center
09:33AM 35.2156 -80.3908 203° Southwest 507 583 36,000  Level Atlanta Center
09:34AM 35.0900 -80.4547 202° Southwest 507 583 36,000  Level Atlanta Center
09:36AM 34.8106 -80.5917 201° Southwest 516 594 36,000  Level Jacksonville Center
09:37AM 34.6803 -80.6531 204° Southwest 493 567 36,000  Level Jacksonville Center
09:38AM 34.5583 -80.7194 201° Southwest 511 588 36,000  Level Jacksonville Center
09:39AM 34.4281 -80.7806 202° Southwest 515 593 36,000  Level Jacksonville Center
09:40AM 34.2975 -80.8442 201° Southwest 509 586 36,000  Level Jacksonville Center
09:41AM 34.1631 -80.9075 201° Southwest 501 577 36,000  Level Jacksonville Center
09:42AM 34.0325 -80.9681 203° Southwest 496 571 36,000  Level Jacksonville Center
09:43AM 33.9311 -81.0203 202° Southwest 496 571 36,000  Level Jacksonville Center
09:44AM 33.7881 -81.0883 203° Southwest 502 578 36,000 -60 Level Jacksonville Center
09:45AM 33.6472 -81.1586 203° Southwest 502 578 35,900 -60 Descending Jacksonville Center
09:46AM 33.5186 -81.2233 202° Southwest 502 578 35,900  Level Jacksonville Center
09:47AM 33.3900 -81.2856 202° Southwest 502 578 35,900  Level Jacksonville Center
09:48AM 33.2633 -81.3475 203° Southwest 502 578 36,000  Climbing Jacksonville Center
09:49AM 33.1369 -81.4117 202° Southwest 497 572 36,000  Level Jacksonville Center
09:50AM 33.0083 -81.4731 202° Southwest 492 566 36,000  Level Jacksonville Center
09:51AM 32.8836 -81.5344 191° South 492 566 36,000 -60 Level Jacksonville Center
09:52AM 32.7461 -81.5661 192° South 497 572 35,900  Descending Jacksonville Center
09:53AM 32.6275 -81.5950 191° South 487 560 36,000  Climbing Jacksonville Center
09:54AM 32.4817 -81.6292 191° South 487 560 36,000  Level Jacksonville Center
09:55AM 32.3483 -81.6606 192° South 493 567 36,000  Level Jacksonville Center
09:56AM 32.2278 -81.6917 191° South 493 567 36,000  Level Jacksonville Center
09:57AM 32.0819 -81.7256 190° South 483 556 36,000  Level Jacksonville Center
09:58AM 31.9608 -81.7514 192° South 488 562 36,000  Level Jacksonville Center
09:59AM 31.8172 -81.7875 191° South 488 562 36,000  Level Jacksonville Center
10:00AM 31.6839 -81.8183 191° South 488 562 36,000  Level Jacksonville Center
10:01AM 31.5672 -81.8442 192° South 488 562 36,000  Level Jacksonville Center
10:02AM 31.4214 -81.8797 190° South 487 560 36,000 -60 Level Jacksonville Center
10:03AM 31.3025 -81.9053 191° South 487 560 35,900  Descending Jacksonville Center
10:04AM 31.1711 -81.9358 192° South 487 560 36,000  Climbing Jacksonville Center
10:05AM 31.0400 -81.9689 191° South 482 555 36,000  Level Jacksonville Center
10:06AM 30.9086 -81.9992 190° South 488 562 36,000 -60 Level Jacksonville Center
10:07AM 30.7772 -82.0269 191° South 488 562 35,900 -60 Descending Jacksonville Center
10:08AM 30.6481 -82.0569 190° South 488 562 35,900  Level Jacksonville Center
10:09AM 30.5167 -82.0825 192° South 488 562 35,900  Level Jacksonville Center
10:10AM 30.3872 -82.1147 208° Southwest 483 556 36,000  Climbing Jacksonville Center
10:11AM 30.2708 -82.1856 211° Southwest 469 540 36,000  Level Jacksonville Center
10:12AM 30.1628 -82.2608 192° South 469 540 36,000 -300 Level Jacksonville Center
10:13AM 30.0189 -82.2953 172° South 469 540 35,400 -780 Descending Jacksonville Center
10:14AM 29.8872 -82.2744 174° South 461 531 34,500 -900 Descending Jacksonville Center
10:15AM 29.7786 -82.2608 172° South 472 543 33,700 -960 Descending Jacksonville Center
10:16AM 29.6344 -82.2378 174° South 485 558 32,600 -1,080 Descending Jacksonville Center
10:17AM 29.4944 -82.2197 173° South 485 558 31,600 -960 Descending Jacksonville Center
10:18AM 29.3564 -82.2017 174° South 490 564 30,700 -960 Descending Jacksonville Center
10:19AM 29.2103 -82.1836 174° South 496 571 29,700 -1,800 Descending Jacksonville Center
10:20AM 29.0744 -82.1681 173° South 496 571 27,200 3,120 Descending Jacksonville Center
10:21AM 28.9408 -82.1500 172° South 496 571 36,000 -4,920 Climbing Jacksonville Center
10:22AM 28.8114 -82.1297 175° South 484 557 17,400 -7,140 Descending Jacksonville Center
10:25AM 28.5333 -82.1000 172° South 417 480 12,000 -1,920 Descending Tampa TRACON
10:26AM 28.4333 -82.0833 173° South 408 470 11,000 -540 Descending Tampa TRACON
10:27AM 28.3167 -82.0667 170° South 375 432 11,000  Level Tampa TRACON
10:28AM 28.2333 -82.0500 172° South 315 362 11,000  Level Tampa TRACON
10:29AM 28.1333 -82.0333 170° South 315 362 11,000 -780 Level Tampa TRACON
10:30AM 28.0500 -82.0167 190° South 312 359 9,400 -1,620 Descending Tampa TRACON
10:31AM 27.9667 -82.0333 221° Southwest 309 356 8,000 -1,500 Descending Tampa TRACON
10:32AM 27.9000 -82.1000 221° Southwest 298 343 6,500 -960 Descending Tampa TRACON
10:33AM 27.8500 -82.1500 222° Southwest 288 331 6,000 -300 Descending Tampa TRACON
10:34AM 27.7833 -82.2167 222° Southwest 288 331 6,000  Level Tampa TRACON
10:35AM 27.7333 -82.2667 230° Southwest 263 303 6,000  Level Tampa TRACON
10:36AM 27.6833 -82.3333 233° Southwest 238 274 6,000 -540 Level Tampa TRACON
10:37AM 27.6500 -82.3833 246° West 241 277 5,000 -1,080 Descending Tampa TRACON
10:38AM 27.6167 -82.4667 249° West 227 261 3,800 -1,140 Descending Tampa TRACON
10:39AM 27.6000 -82.5167 241° Southwest 227 261 2,700 -900 Descending Tampa TRACON
10:40AM 27.5667 -82.5833 254° West 221 254 2,000 -300 Descending Tampa TRACON
10:41AM 27.5500 -82.6500 180° South 211 243 2,100  Climbing Tampa TRACON
10:42AM 27.4833 -82.6500 138° Southeast 205 236 2,000 -480 Descending Tampa TRACON
10:43AM 27.4500 -82.6167 138° Southeast 181 208 1,200 -840 Descending Tampa TRACON
10:44AM 27.4167 -82.5833 138° Southeast 140 161 500 -780 Descending Tampa TRACON